sensor_id;sensor_type;location;lat;lon;timestamp;P1;durP1;ratioP1;P2;durP2;ratioP2
12665;SDS011;58531;59.050;17.416;2023-06-01T00:00:55;1.87;;;1.20;;
12665;SDS011;58531;59.050;17.416;2023-06-01T00:03:22;1.27;;;0.90;;
12665;SDS011;58531;59.050;17.416;2023-06-01T00:05:52;1.00;;;0.80;;
12665;SDS011;58531;59.050;17.416;2023-06-01T00:08:19;0.93;;;0.77;;
12665;SDS011;58531;59.050;17.416;2023-06-01T00:10:47;1.83;;;0.97;;
12665;SDS011;58531;59.050;17.416;2023-06-01T00:13:14;1.63;;;1.10;;
12665;SDS011;58531;59.050;17.416;2023-06-01T00:15:41;1.20;;;0.70;;
12665;SDS011;58531;59.050;17.416;2023-06-01T00:18:08;1.07;;;0.80;;
12665;SDS011;58531;59.050;17.416;2023-06-01T00:20:38;1.30;;;0.70;;
12665;SDS011;58531;59.050;17.416;2023-06-01T00:50:00;0.83;;;0.57;;
12665;SDS011;58531;59.050;17.416;2023-06-01T00:52:27;0.80;;;0.67;;
12665;SDS011;58531;59.050;17.416;2023-06-01T00:54:55;1.00;;;0.90;;
12665;SDS011;58531;59.050;17.416;2023-06-01T00:57:22;1.67;;;0.70;;
12665;SDS011;58531;59.050;17.416;2023-06-01T00:59:51;2.20;;;0.80;;
12665;SDS011;58531;59.050;17.416;2023-06-01T01:02:18;1.00;;;0.67;;
12665;SDS011;58531;59.050;17.416;2023-06-01T01:04:46;0.77;;;0.70;;
12665;SDS011;58531;59.050;17.416;2023-06-01T01:07:21;3.10;;;0.70;;
12665;SDS011;58531;59.050;17.416;2023-06-01T01:09:56;2.97;;;0.70;;
12665;SDS011;58531;59.050;17.416;2023-06-01T01:12:31;1.47;;;0.50;;
12665;SDS011;58531;59.050;17.416;2023-06-01T01:15:04;2.83;;;0.60;;
12665;SDS011;58531;59.050;17.416;2023-06-01T01:17:36;1.13;;;0.50;;
12665;SDS011;58531;59.050;17.416;2023-06-01T01:20:06;0.20;;;0.20;;
12665;SDS011;58531;59.050;17.416;2023-06-01T01:22:51;1.57;;;0.40;;
12665;SDS011;58531;59.050;17.416;2023-06-01T01:28:35;0.40;;;0.40;;
12665;SDS011;58531;59.050;17.416;2023-06-01T01:31:07;2.10;;;0.50;;
12665;SDS011;58531;59.050;17.416;2023-06-01T01:33:37;0.83;;;0.60;;
12665;SDS011;58531;59.050;17.416;2023-06-01T01:36:05;0.67;;;0.50;;
12665;SDS011;58531;59.050;17.416;2023-06-01T01:38:33;0.63;;;0.50;;
12665;SDS011;58531;59.050;17.416;2023-06-01T01:41:01;0.60;;;0.40;;
12665;SDS011;58531;59.050;17.416;2023-06-01T01:43:28;1.73;;;0.57;;
12665;SDS011;58531;59.050;17.416;2023-06-01T01:45:59;0.70;;;0.43;;
12665;SDS011;58531;59.050;17.416;2023-06-01T01:48:33;0.30;;;0.30;;
12665;SDS011;58531;59.050;17.416;2023-06-01T01:51:06;1.60;;;0.70;;
12665;SDS011;58531;59.050;17.416;2023-06-01T01:53:36;0.97;;;0.50;;
12665;SDS011;58531;59.050;17.416;2023-06-01T01:56:05;0.90;;;0.60;;
12665;SDS011;58531;59.050;17.416;2023-06-01T01:58:33;1.83;;;0.40;;
12665;SDS011;58531;59.050;17.416;2023-06-01T02:01:02;0.50;;;0.40;;
12665;SDS011;58531;59.050;17.416;2023-06-01T02:03:30;0.50;;;0.50;;
12665;SDS011;58531;59.050;17.416;2023-06-01T02:05:57;1.77;;;0.60;;
12665;SDS011;58531;59.050;17.416;2023-06-01T02:08:23;0.40;;;0.40;;
12665;SDS011;58531;59.050;17.416;2023-06-01T02:10:50;0.47;;;0.47;;
12665;SDS011;58531;59.050;17.416;2023-06-01T02:13:17;0.77;;;0.40;;
12665;SDS011;58531;59.050;17.416;2023-06-01T02:15:44;0.40;;;0.40;;
12665;SDS011;58531;59.050;17.416;2023-06-01T02:18:12;1.80;;;0.40;;
12665;SDS011;58531;59.050;17.416;2023-06-01T02:20:41;3.57;;;0.30;;
12665;SDS011;58531;59.050;17.416;2023-06-01T02:23:07;0.73;;;0.30;;
12665;SDS011;58531;59.050;17.416;2023-06-01T02:25:35;1.13;;;0.50;;
12665;SDS011;58531;59.050;17.416;2023-06-01T02:28:01;0.40;;;0.33;;
12665;SDS011;58531;59.050;17.416;2023-06-01T02:30:28;0.70;;;0.50;;
12665;SDS011;58531;59.050;17.416;2023-06-01T02:32:55;0.63;;;0.40;;
12665;SDS011;58531;59.050;17.416;2023-06-01T02:35:23;1.17;;;0.30;;
12665;SDS011;58531;59.050;17.416;2023-06-01T02:37:50;2.20;;;0.57;;
12665;SDS011;58531;59.050;17.416;2023-06-01T02:40:17;0.60;;;0.40;;
12665;SDS011;58531;59.050;17.416;2023-06-01T02:42:44;1.57;;;0.30;;
12665;SDS011;58531;59.050;17.416;2023-06-01T02:45:11;0.60;;;0.40;;
12665;SDS011;58531;59.050;17.416;2023-06-01T02:47:37;0.40;;;0.20;;
12665;SDS011;58531;59.050;17.416;2023-06-01T02:50:05;0.30;;;0.30;;
12665;SDS011;58531;59.050;17.416;2023-06-01T02:52:33;1.37;;;0.40;;
12665;SDS011;58531;59.050;17.416;2023-06-01T02:55:01;0.87;;;0.50;;
12665;SDS011;58531;59.050;17.416;2023-06-01T02:57:27;0.40;;;0.27;;
12665;SDS011;58531;59.050;17.416;2023-06-01T02:59:54;0.50;;;0.30;;
12665;SDS011;58531;59.050;17.416;2023-06-01T03:02:21;1.13;;;0.30;;
12665;SDS011;58531;59.050;17.416;2023-06-01T03:04:48;0.30;;;0.30;;
12665;SDS011;58531;59.050;17.416;2023-06-01T03:07:15;0.53;;;0.50;;
12665;SDS011;58531;59.050;17.416;2023-06-01T03:09:43;0.90;;;0.30;;
12665;SDS011;58531;59.050;17.416;2023-06-01T03:12:10;0.47;;;0.47;;
12665;SDS011;58531;59.050;17.416;2023-06-01T03:14:37;0.77;;;0.57;;
12665;SDS011;58531;59.050;17.416;2023-06-01T03:17:04;0.70;;;0.23;;
12665;SDS011;58531;59.050;17.416;2023-06-01T03:19:31;0.30;;;0.30;;
12665;SDS011;58531;59.050;17.416;2023-06-01T03:21:58;0.20;;;0.20;;
12665;SDS011;58531;59.050;17.416;2023-06-01T03:24:25;1.77;;;0.40;;
12665;SDS011;58531;59.050;17.416;2023-06-01T03:26:55;1.30;;;0.53;;
12665;SDS011;58531;59.050;17.416;2023-06-01T03:29:22;0.20;;;0.20;;
12665;SDS011;58531;59.050;17.416;2023-06-01T03:31:48;6.40;;;0.70;;
12665;SDS011;58531;59.050;17.416;2023-06-01T03:34:16;0.87;;;0.37;;
12665;SDS011;58531;59.050;17.416;2023-06-01T03:36:42;0.40;;;0.30;;
12665;SDS011;58531;59.050;17.416;2023-06-01T03:39:13;1.53;;;0.40;;
12665;SDS011;58531;59.050;17.416;2023-06-01T03:41:41;0.80;;;0.60;;
12665;SDS011;58531;59.050;17.416;2023-06-01T03:44:09;1.47;;;0.53;;
12665;SDS011;58531;59.050;17.416;2023-06-01T03:46:36;0.30;;;0.30;;
12665;SDS011;58531;59.050;17.416;2023-06-01T03:49:03;1.17;;;0.40;;
12665;SDS011;58531;59.050;17.416;2023-06-01T03:51:30;0.30;;;0.30;;
12665;SDS011;58531;59.050;17.416;2023-06-01T03:53:57;2.17;;;0.30;;
12665;SDS011;58531;59.050;17.416;2023-06-01T03:56:24;0.63;;;0.40;;
12665;SDS011;58531;59.050;17.416;2023-06-01T03:58:52;0.40;;;0.40;;
12665;SDS011;58531;59.050;17.416;2023-06-01T04:01:20;0.37;;;0.37;;
12665;SDS011;58531;59.050;17.416;2023-06-01T04:03:48;0.50;;;0.30;;
12665;SDS011;58531;59.050;17.416;2023-06-01T04:06:15;0.30;;;0.30;;
12665;SDS011;58531;59.050;17.416;2023-06-01T04:08:43;0.53;;;0.40;;
12665;SDS011;58531;59.050;17.416;2023-06-01T04:11:14;0.33;;;0.33;;
12665;SDS011;58531;59.050;17.416;2023-06-01T04:13:41;0.23;;;0.23;;
12665;SDS011;58531;59.050;17.416;2023-06-01T04:16:08;1.70;;;0.40;;
12665;SDS011;58531;59.050;17.416;2023-06-01T04:18:37;0.30;;;0.30;;
12665;SDS011;58531;59.050;17.416;2023-06-01T04:21:04;0.63;;;0.50;;
12665;SDS011;58531;59.050;17.416;2023-06-01T04:23:32;0.50;;;0.50;;
12665;SDS011;58531;59.050;17.416;2023-06-01T04:25:59;1.07;;;0.40;;
12665;SDS011;58531;59.050;17.416;2023-06-01T04:28:27;0.33;;;0.30;;
12665;SDS011;58531;59.050;17.416;2023-06-01T04:30:55;0.97;;;0.97;;
12665;SDS011;58531;59.050;17.416;2023-06-01T04:33:22;1.00;;;0.50;;
12665;SDS011;58531;59.050;17.416;2023-06-01T04:35:51;1.60;;;0.40;;
12665;SDS011;58531;59.050;17.416;2023-06-01T04:38:18;1.17;;;0.57;;
12665;SDS011;58531;59.050;17.416;2023-06-01T04:40:46;0.40;;;0.37;;
12665;SDS011;58531;59.050;17.416;2023-06-01T04:43:13;0.43;;;0.30;;
12665;SDS011;58531;59.050;17.416;2023-06-01T04:45:44;0.40;;;0.40;;
12665;SDS011;58531;59.050;17.416;2023-06-01T04:48:11;0.57;;;0.30;;
12665;SDS011;58531;59.050;17.416;2023-06-01T04:50:41;0.40;;;0.30;;
12665;SDS011;58531;59.050;17.416;2023-06-01T04:53:11;0.77;;;0.30;;
12665;SDS011;58531;59.050;17.416;2023-06-01T04:55:37;1.37;;;0.50;;
12665;SDS011;58531;59.050;17.416;2023-06-01T04:58:05;0.63;;;0.47;;
12665;SDS011;58531;59.050;17.416;2023-06-01T05:00:31;1.70;;;0.43;;
12665;SDS011;58531;59.050;17.416;2023-06-01T05:02:58;0.50;;;0.40;;
12665;SDS011;58531;59.050;17.416;2023-06-01T05:05:27;0.60;;;0.50;;
12665;SDS011;58531;59.050;17.416;2023-06-01T05:07:54;0.67;;;0.50;;
12665;SDS011;58531;59.050;17.416;2023-06-01T05:10:22;0.40;;;0.40;;
12665;SDS011;58531;59.050;17.416;2023-06-01T05:12:50;0.33;;;0.33;;
12665;SDS011;58531;59.050;17.416;2023-06-01T05:15:16;1.23;;;0.40;;
12665;SDS011;58531;59.050;17.416;2023-06-01T05:17:43;0.63;;;0.40;;
12665;SDS011;58531;59.050;17.416;2023-06-01T05:20:10;1.47;;;0.40;;
12665;SDS011;58531;59.050;17.416;2023-06-01T05:22:38;0.50;;;0.50;;
12665;SDS011;58531;59.050;17.416;2023-06-01T05:25:05;0.90;;;0.60;;
12665;SDS011;58531;59.050;17.416;2023-06-01T05:27:34;0.50;;;0.30;;
12665;SDS011;58531;59.050;17.416;2023-06-01T05:30:02;0.73;;;0.40;;
12665;SDS011;58531;59.050;17.416;2023-06-01T05:32:29;1.90;;;0.40;;
12665;SDS011;58531;59.050;17.416;2023-06-01T05:34:56;1.57;;;0.40;;
12665;SDS011;58531;59.050;17.416;2023-06-01T05:37:23;2.10;;;0.60;;
12665;SDS011;58531;59.050;17.416;2023-06-01T05:39:50;1.50;;;0.57;;
12665;SDS011;58531;59.050;17.416;2023-06-01T05:42:17;2.13;;;0.67;;
12665;SDS011;58531;59.050;17.416;2023-06-01T05:44:45;1.37;;;0.50;;
12665;SDS011;58531;59.050;17.416;2023-06-01T05:47:12;0.93;;;0.47;;
12665;SDS011;58531;59.050;17.416;2023-06-01T05:49:39;0.33;;;0.30;;
12665;SDS011;58531;59.050;17.416;2023-06-01T05:52:06;0.50;;;0.50;;
12665;SDS011;58531;59.050;17.416;2023-06-01T05:54:32;0.63;;;0.60;;
12665;SDS011;58531;59.050;17.416;2023-06-01T05:56:59;4.27;;;0.87;;
12665;SDS011;58531;59.050;17.416;2023-06-01T05:59:26;1.53;;;0.70;;
12665;SDS011;58531;59.050;17.416;2023-06-01T06:01:55;1.87;;;0.50;;
12665;SDS011;58531;59.050;17.416;2023-06-01T06:04:21;0.50;;;0.50;;
12665;SDS011;58531;59.050;17.416;2023-06-01T06:06:48;1.23;;;0.60;;
12665;SDS011;58531;59.050;17.416;2023-06-01T06:09:15;1.83;;;0.67;;
12665;SDS011;58531;59.050;17.416;2023-06-01T06:11:42;1.03;;;0.63;;
12665;SDS011;58531;59.050;17.416;2023-06-01T06:14:09;1.70;;;0.60;;
12665;SDS011;58531;59.050;17.416;2023-06-01T06:16:38;1.00;;;0.70;;
12665;SDS011;58531;59.050;17.416;2023-06-01T06:19:07;0.60;;;0.60;;
12665;SDS011;58531;59.050;17.416;2023-06-01T06:21:33;0.93;;;0.57;;
12665;SDS011;58531;59.050;17.416;2023-06-01T06:24:01;0.70;;;0.70;;
12665;SDS011;58531;59.050;17.416;2023-06-01T06:26:28;0.70;;;0.70;;
12665;SDS011;58531;59.050;17.416;2023-06-01T06:28:55;0.67;;;0.60;;
12665;SDS011;58531;59.050;17.416;2023-06-01T06:31:22;1.10;;;0.70;;
12665;SDS011;58531;59.050;17.416;2023-06-01T06:33:49;0.67;;;0.50;;
12665;SDS011;58531;59.050;17.416;2023-06-01T06:36:18;1.27;;;0.70;;
12665;SDS011;58531;59.050;17.416;2023-06-01T06:38:44;0.70;;;0.60;;
12665;SDS011;58531;59.050;17.416;2023-06-01T06:41:11;0.90;;;0.60;;
12665;SDS011;58531;59.050;17.416;2023-06-01T06:43:38;1.80;;;0.73;;
12665;SDS011;58531;59.050;17.416;2023-06-01T06:46:05;1.60;;;0.97;;
12665;SDS011;58531;59.050;17.416;2023-06-01T06:48:32;2.23;;;0.80;;
12665;SDS011;58531;59.050;17.416;2023-06-01T06:50:59;0.87;;;0.67;;
12665;SDS011;58531;59.050;17.416;2023-06-01T06:53:27;1.20;;;0.73;;
12665;SDS011;58531;59.050;17.416;2023-06-01T06:55:55;0.90;;;0.70;;
12665;SDS011;58531;59.050;17.416;2023-06-01T06:58:22;1.40;;;0.80;;
12665;SDS011;58531;59.050;17.416;2023-06-01T07:00:49;0.77;;;0.50;;
12665;SDS011;58531;59.050;17.416;2023-06-01T07:03:16;1.23;;;0.60;;
12665;SDS011;58531;59.050;17.416;2023-06-01T07:05:43;3.57;;;0.70;;
12665;SDS011;58531;59.050;17.416;2023-06-01T07:08:11;1.63;;;0.80;;
12665;SDS011;58531;59.050;17.416;2023-06-01T07:10:39;1.13;;;0.80;;
12665;SDS011;58531;59.050;17.416;2023-06-01T07:13:06;0.83;;;0.70;;
12665;SDS011;58531;59.050;17.416;2023-06-01T07:15:33;1.00;;;0.53;;
12665;SDS011;58531;59.050;17.416;2023-06-01T07:18:00;1.00;;;0.70;;
12665;SDS011;58531;59.050;17.416;2023-06-01T07:20:26;0.90;;;0.60;;
12665;SDS011;58531;59.050;17.416;2023-06-01T07:22:53;0.70;;;0.63;;
12665;SDS011;58531;59.050;17.416;2023-06-01T07:25:20;2.20;;;0.83;;
12665;SDS011;58531;59.050;17.416;2023-06-01T07:27:48;0.93;;;0.70;;
12665;SDS011;58531;59.050;17.416;2023-06-01T07:30:16;1.40;;;0.80;;
12665;SDS011;58531;59.050;17.416;2023-06-01T07:32:43;1.00;;;0.80;;
12665;SDS011;58531;59.050;17.416;2023-06-01T07:35:10;1.67;;;0.70;;
12665;SDS011;58531;59.050;17.416;2023-06-01T07:37:37;0.87;;;0.80;;
12665;SDS011;58531;59.050;17.416;2023-06-01T07:40:04;1.07;;;0.70;;
12665;SDS011;58531;59.050;17.416;2023-06-01T07:42:32;1.43;;;0.80;;
12665;SDS011;58531;59.050;17.416;2023-06-01T07:45:00;1.20;;;0.73;;
12665;SDS011;58531;59.050;17.416;2023-06-01T07:47:27;1.13;;;0.83;;
12665;SDS011;58531;59.050;17.416;2023-06-01T07:49:55;1.80;;;0.77;;
12665;SDS011;58531;59.050;17.416;2023-06-01T07:52:21;1.97;;;0.90;;
12665;SDS011;58531;59.050;17.416;2023-06-01T07:54:49;0.90;;;0.70;;
12665;SDS011;58531;59.050;17.416;2023-06-01T07:57:16;1.07;;;0.63;;
12665;SDS011;58531;59.050;17.416;2023-06-01T07:59:43;2.43;;;0.80;;
12665;SDS011;58531;59.050;17.416;2023-06-01T08:02:12;0.57;;;0.57;;
12665;SDS011;58531;59.050;17.416;2023-06-01T08:04:39;3.23;;;0.70;;
12665;SDS011;58531;59.050;17.416;2023-06-01T08:07:06;1.37;;;0.80;;
12665;SDS011;58531;59.050;17.416;2023-06-01T08:09:33;0.80;;;0.70;;
12665;SDS011;58531;59.050;17.416;2023-06-01T08:12:02;1.03;;;0.80;;
12665;SDS011;58531;59.050;17.416;2023-06-01T08:14:30;0.97;;;0.63;;
12665;SDS011;58531;59.050;17.416;2023-06-01T08:16:59;2.20;;;0.70;;
12665;SDS011;58531;59.050;17.416;2023-06-01T08:19:28;1.13;;;0.70;;
12665;SDS011;58531;59.050;17.416;2023-06-01T08:21:56;2.63;;;0.70;;
12665;SDS011;58531;59.050;17.416;2023-06-01T08:24:23;1.43;;;0.70;;
12665;SDS011;58531;59.050;17.416;2023-06-01T08:26:50;1.87;;;0.57;;
12665;SDS011;58531;59.050;17.416;2023-06-01T08:29:22;1.10;;;0.90;;
12665;SDS011;58531;59.050;17.416;2023-06-01T08:31:49;1.13;;;0.60;;
12665;SDS011;58531;59.050;17.416;2023-06-01T08:34:16;1.60;;;0.80;;
12665;SDS011;58531;59.050;17.416;2023-06-01T08:36:44;0.83;;;0.67;;
12665;SDS011;58531;59.050;17.416;2023-06-01T08:39:20;1.93;;;0.70;;
12665;SDS011;58531;59.050;17.416;2023-06-01T08:41:52;0.97;;;0.60;;
12665;SDS011;58531;59.050;17.416;2023-06-01T08:44:29;0.97;;;0.87;;
12665;SDS011;58531;59.050;17.416;2023-06-01T08:47:01;1.17;;;0.70;;
12665;SDS011;58531;59.050;17.416;2023-06-01T08:49:29;0.80;;;0.80;;
12665;SDS011;58531;59.050;17.416;2023-06-01T08:51:58;2.57;;;0.90;;
12665;SDS011;58531;59.050;17.416;2023-06-01T08:54:26;1.73;;;0.80;;
12665;SDS011;58531;59.050;17.416;2023-06-01T08:56:56;1.07;;;0.70;;
12665;SDS011;58531;59.050;17.416;2023-06-01T08:59:25;0.90;;;0.70;;
12665;SDS011;58531;59.050;17.416;2023-06-01T09:01:52;3.10;;;0.90;;
12665;SDS011;58531;59.050;17.416;2023-06-01T09:04:19;1.43;;;0.80;;
12665;SDS011;58531;59.050;17.416;2023-06-01T09:06:46;0.93;;;0.70;;
12665;SDS011;58531;59.050;17.416;2023-06-01T09:09:15;1.93;;;0.80;;
12665;SDS011;58531;59.050;17.416;2023-06-01T09:11:42;2.57;;;1.00;;
12665;SDS011;58531;59.050;17.416;2023-06-01T09:14:21;1.20;;;0.80;;
12665;SDS011;58531;59.050;17.416;2023-06-01T09:16:49;1.13;;;0.67;;
12665;SDS011;58531;59.050;17.416;2023-06-01T09:19:16;1.67;;;0.70;;
12665;SDS011;58531;59.050;17.416;2023-06-01T09:21:57;1.33;;;0.70;;
12665;SDS011;58531;59.050;17.416;2023-06-01T09:24:26;2.40;;;1.03;;
12665;SDS011;58531;59.050;17.416;2023-06-01T09:26:58;3.60;;;1.30;;
12665;SDS011;58531;59.050;17.416;2023-06-01T09:29:26;1.27;;;0.93;;
12665;SDS011;58531;59.050;17.416;2023-06-01T09:31:53;1.20;;;0.83;;
12665;SDS011;58531;59.050;17.416;2023-06-01T09:34:20;2.37;;;0.80;;
12665;SDS011;58531;59.050;17.416;2023-06-01T09:36:48;1.90;;;0.83;;
12665;SDS011;58531;59.050;17.416;2023-06-01T09:39:17;1.20;;;0.70;;
12665;SDS011;58531;59.050;17.416;2023-06-01T09:41:46;1.43;;;1.17;;
12665;SDS011;58531;59.050;17.416;2023-06-01T09:44:21;1.77;;;1.00;;
12665;SDS011;58531;59.050;17.416;2023-06-01T09:46:50;1.47;;;0.83;;
12665;SDS011;58531;59.050;17.416;2023-06-01T09:49:18;2.03;;;0.83;;
12665;SDS011;58531;59.050;17.416;2023-06-01T09:51:47;1.27;;;0.90;;
12665;SDS011;58531;59.050;17.416;2023-06-01T09:54:27;2.13;;;0.90;;
12665;SDS011;58531;59.050;17.416;2023-06-01T09:56:57;1.27;;;1.00;;
12665;SDS011;58531;59.050;17.416;2023-06-01T09:59:26;1.63;;;1.00;;
12665;SDS011;58531;59.050;17.416;2023-06-01T10:01:56;1.93;;;0.93;;
12665;SDS011;58531;59.050;17.416;2023-06-01T10:04:25;0.70;;;0.60;;
12665;SDS011;58531;59.050;17.416;2023-06-01T10:06:53;1.07;;;0.93;;
12665;SDS011;58531;59.050;17.416;2023-06-01T10:09:21;2.80;;;1.17;;
12665;SDS011;58531;59.050;17.416;2023-06-01T10:11:50;1.53;;;0.93;;
12665;SDS011;58531;59.050;17.416;2023-06-01T10:14:21;3.73;;;0.97;;
12665;SDS011;58531;59.050;17.416;2023-06-01T10:16:49;1.10;;;0.80;;
12665;SDS011;58531;59.050;17.416;2023-06-01T10:19:17;1.43;;;0.90;;
12665;SDS011;58531;59.050;17.416;2023-06-01T10:21:45;1.03;;;0.80;;
12665;SDS011;58531;59.050;17.416;2023-06-01T10:24:12;2.43;;;0.93;;
12665;SDS011;58531;59.050;17.416;2023-06-01T10:26:43;1.30;;;0.70;;
12665;SDS011;58531;59.050;17.416;2023-06-01T10:29:18;1.63;;;0.60;;
12665;SDS011;58531;59.050;17.416;2023-06-01T10:31:47;1.47;;;0.90;;
12665;SDS011;58531;59.050;17.416;2023-06-01T10:34:14;2.00;;;1.20;;
12665;SDS011;58531;59.050;17.416;2023-06-01T10:39:43;1.20;;;1.10;;
12665;SDS011;58531;59.050;17.416;2023-06-01T10:45:03;0.87;;;0.80;;
12665;SDS011;58531;59.050;17.416;2023-06-01T10:47:45;1.17;;;0.77;;
12665;SDS011;58531;59.050;17.416;2023-06-01T10:50:16;2.17;;;0.67;;
12665;SDS011;58531;59.050;17.416;2023-06-01T10:52:45;0.70;;;0.70;;
12665;SDS011;58531;59.050;17.416;2023-06-01T10:55:19;1.43;;;0.70;;
12665;SDS011;58531;59.050;17.416;2023-06-01T10:57:50;1.13;;;0.70;;
12665;SDS011;58531;59.050;17.416;2023-06-01T11:00:18;1.83;;;0.90;;
12665;SDS011;58531;59.050;17.416;2023-06-01T11:02:50;2.10;;;0.80;;
12665;SDS011;58531;59.050;17.416;2023-06-01T11:05:42;1.83;;;1.13;;
12665;SDS011;58531;59.050;17.416;2023-06-01T11:11:15;1.10;;;0.70;;
12665;SDS011;58531;59.050;17.416;2023-06-01T11:13:42;1.17;;;0.87;;
12665;SDS011;58531;59.050;17.416;2023-06-01T11:16:32;2.00;;;0.80;;
12665;SDS011;58531;59.050;17.416;2023-06-01T11:19:01;0.87;;;0.83;;
12665;SDS011;58531;59.050;17.416;2023-06-01T11:21:30;2.30;;;0.90;;
12665;SDS011;58531;59.050;17.416;2023-06-01T11:24:00;3.13;;;0.93;;
12665;SDS011;58531;59.050;17.416;2023-06-01T11:26:31;1.03;;;0.70;;
12665;SDS011;58531;59.050;17.416;2023-06-01T11:29:05;0.90;;;0.80;;
12665;SDS011;58531;59.050;17.416;2023-06-01T11:31:38;1.10;;;0.77;;
12665;SDS011;58531;59.050;17.416;2023-06-01T11:34:10;1.83;;;0.87;;
12665;SDS011;58531;59.050;17.416;2023-06-01T11:36:38;0.93;;;0.80;;
12665;SDS011;58531;59.050;17.416;2023-06-01T11:39:15;0.70;;;0.70;;
12665;SDS011;58531;59.050;17.416;2023-06-01T11:41:45;2.93;;;0.90;;
12665;SDS011;58531;59.050;17.416;2023-06-01T11:44:13;1.47;;;0.87;;
12665;SDS011;58531;59.050;17.416;2023-06-01T11:46:49;2.13;;;1.00;;
12665;SDS011;58531;59.050;17.416;2023-06-01T11:49:18;1.53;;;0.90;;
12665;SDS011;58531;59.050;17.416;2023-06-01T11:51:45;1.63;;;0.80;;
12665;SDS011;58531;59.050;17.416;2023-06-01T11:54:12;1.37;;;0.80;;
12665;SDS011;58531;59.050;17.416;2023-06-01T11:56:39;1.47;;;1.20;;
12665;SDS011;58531;59.050;17.416;2023-06-01T11:59:07;1.70;;;0.80;;
12665;SDS011;58531;59.050;17.416;2023-06-01T12:01:35;1.07;;;0.83;;
12665;SDS011;58531;59.050;17.416;2023-06-01T12:04:03;1.47;;;0.93;;
12665;SDS011;58531;59.050;17.416;2023-06-01T12:06:34;0.87;;;0.80;;
12665;SDS011;58531;59.050;17.416;2023-06-01T12:09:02;1.97;;;0.80;;
12665;SDS011;58531;59.050;17.416;2023-06-01T12:11:31;1.17;;;1.00;;
12665;SDS011;58531;59.050;17.416;2023-06-01T12:14:00;1.10;;;0.80;;
12665;SDS011;58531;59.050;17.416;2023-06-01T12:19:19;1.10;;;0.80;;
12665;SDS011;58531;59.050;17.416;2023-06-01T12:21:48;0.90;;;0.70;;
12665;SDS011;58531;59.050;17.416;2023-06-01T12:24:16;0.97;;;0.67;;
12665;SDS011;58531;59.050;17.416;2023-06-01T12:26:44;2.20;;;0.93;;
12665;SDS011;58531;59.050;17.416;2023-06-01T12:29:11;1.43;;;1.00;;
12665;SDS011;58531;59.050;17.416;2023-06-01T12:31:38;2.07;;;0.90;;
12665;SDS011;58531;59.050;17.416;2023-06-01T12:34:14;1.00;;;0.90;;
12665;SDS011;58531;59.050;17.416;2023-06-01T12:36:42;1.20;;;0.77;;
12665;SDS011;58531;59.050;17.416;2023-06-01T12:39:10;3.33;;;0.90;;
12665;SDS011;58531;59.050;17.416;2023-06-01T12:41:46;1.37;;;0.80;;
12665;SDS011;58531;59.050;17.416;2023-06-01T12:44:19;1.97;;;0.87;;
12665;SDS011;58531;59.050;17.416;2023-06-01T12:46:47;3.17;;;1.17;;
12665;SDS011;58531;59.050;17.416;2023-06-01T12:49:22;2.70;;;0.93;;
12665;SDS011;58531;59.050;17.416;2023-06-01T12:51:49;0.70;;;0.60;;
12665;SDS011;58531;59.050;17.416;2023-06-01T12:54:17;1.20;;;0.60;;
12665;SDS011;58531;59.050;17.416;2023-06-01T12:56:45;1.50;;;0.70;;
12665;SDS011;58531;59.050;17.416;2023-06-01T12:59:13;1.93;;;0.80;;
12665;SDS011;58531;59.050;17.416;2023-06-01T13:01:40;1.13;;;0.80;;
12665;SDS011;58531;59.050;17.416;2023-06-01T13:04:07;0.87;;;0.80;;
12665;SDS011;58531;59.050;17.416;2023-06-01T13:06:34;1.00;;;0.90;;
12665;SDS011;58531;59.050;17.416;2023-06-01T13:09:02;1.00;;;0.80;;
12665;SDS011;58531;59.050;17.416;2023-06-01T13:11:30;2.17;;;0.70;;
12665;SDS011;58531;59.050;17.416;2023-06-01T13:13:57;0.80;;;0.70;;
12665;SDS011;58531;59.050;17.416;2023-06-01T13:16:24;0.67;;;0.67;;
12665;SDS011;58531;59.050;17.416;2023-06-01T13:18:51;1.07;;;0.70;;
12665;SDS011;58531;59.050;17.416;2023-06-01T13:21:18;0.67;;;0.60;;
12665;SDS011;58531;59.050;17.416;2023-06-01T13:23:45;0.93;;;0.60;;
12665;SDS011;58531;59.050;17.416;2023-06-01T13:26:12;0.63;;;0.60;;
12665;SDS011;58531;59.050;17.416;2023-06-01T13:28:41;1.87;;;0.70;;
12665;SDS011;58531;59.050;17.416;2023-06-01T13:31:08;1.17;;;0.70;;
12665;SDS011;58531;59.050;17.416;2023-06-01T13:33:35;1.83;;;0.80;;
12665;SDS011;58531;59.050;17.416;2023-06-01T13:36:02;0.87;;;0.60;;
12665;SDS011;58531;59.050;17.416;2023-06-01T13:38:30;0.80;;;0.60;;
12665;SDS011;58531;59.050;17.416;2023-06-01T13:40:57;1.07;;;0.60;;
12665;SDS011;58531;59.050;17.416;2023-06-01T13:43:24;1.00;;;0.70;;
12665;SDS011;58531;59.050;17.416;2023-06-01T13:45:52;1.37;;;0.70;;
12665;SDS011;58531;59.050;17.416;2023-06-01T13:48:19;1.57;;;0.87;;
12665;SDS011;58531;59.050;17.416;2023-06-01T13:50:47;1.33;;;0.50;;
12665;SDS011;58531;59.050;17.416;2023-06-01T13:53:14;0.63;;;0.60;;
12665;SDS011;58531;59.050;17.416;2023-06-01T13:55:41;0.83;;;0.50;;
12665;SDS011;58531;59.050;17.416;2023-06-01T13:58:08;0.97;;;0.53;;
12665;SDS011;58531;59.050;17.416;2023-06-01T14:00:34;1.10;;;0.70;;
12665;SDS011;58531;59.050;17.416;2023-06-01T14:03:03;1.50;;;0.73;;
12665;SDS011;58531;59.050;17.416;2023-06-01T14:05:30;0.93;;;0.63;;
12665;SDS011;58531;59.050;17.416;2023-06-01T14:07:56;0.90;;;0.60;;
12665;SDS011;58531;59.050;17.416;2023-06-01T14:10:23;1.73;;;0.60;;
12665;SDS011;58531;59.050;17.416;2023-06-01T14:12:50;1.00;;;0.77;;
12665;SDS011;58531;59.050;17.416;2023-06-01T14:15:17;2.07;;;0.67;;
12665;SDS011;58531;59.050;17.416;2023-06-01T14:17:44;1.27;;;0.83;;
12665;SDS011;58531;59.050;17.416;2023-06-01T14:20:12;1.73;;;0.73;;
12665;SDS011;58531;59.050;17.416;2023-06-01T14:22:39;2.53;;;0.80;;
12665;SDS011;58531;59.050;17.416;2023-06-01T14:25:06;0.90;;;0.73;;
12665;SDS011;58531;59.050;17.416;2023-06-01T14:27:33;0.93;;;0.53;;
12665;SDS011;58531;59.050;17.416;2023-06-01T14:30:02;1.57;;;0.70;;
12665;SDS011;58531;59.050;17.416;2023-06-01T14:32:30;2.63;;;0.83;;
12665;SDS011;58531;59.050;17.416;2023-06-01T14:34:56;1.00;;;0.90;;
12665;SDS011;58531;59.050;17.416;2023-06-01T14:37:25;3.17;;;0.73;;
12665;SDS011;58531;59.050;17.416;2023-06-01T14:39:52;0.93;;;0.70;;
12665;SDS011;58531;59.050;17.416;2023-06-01T14:42:19;2.03;;;0.70;;
12665;SDS011;58531;59.050;17.416;2023-06-01T14:44:46;1.57;;;0.90;;
12665;SDS011;58531;59.050;17.416;2023-06-01T14:47:13;0.60;;;0.60;;
12665;SDS011;58531;59.050;17.416;2023-06-01T14:49:40;0.50;;;0.50;;
12665;SDS011;58531;59.050;17.416;2023-06-01T14:52:07;1.23;;;0.80;;
12665;SDS011;58531;59.050;17.416;2023-06-01T14:54:35;1.10;;;0.70;;
12665;SDS011;58531;59.050;17.416;2023-06-01T14:57:02;1.17;;;0.70;;
12665;SDS011;58531;59.050;17.416;2023-06-01T14:59:29;2.17;;;0.80;;
12665;SDS011;58531;59.050;17.416;2023-06-01T15:01:58;0.60;;;0.60;;
12665;SDS011;58531;59.050;17.416;2023-06-01T15:04:26;2.00;;;0.70;;
12665;SDS011;58531;59.050;17.416;2023-06-01T15:06:53;1.10;;;1.00;;
12665;SDS011;58531;59.050;17.416;2023-06-01T15:09:20;0.90;;;0.70;;
12665;SDS011;58531;59.050;17.416;2023-06-01T15:11:48;1.80;;;1.03;;
12665;SDS011;58531;59.050;17.416;2023-06-01T15:14:15;1.53;;;0.70;;
12665;SDS011;58531;59.050;17.416;2023-06-01T15:16:42;0.87;;;0.60;;
12665;SDS011;58531;59.050;17.416;2023-06-01T15:19:08;0.90;;;0.60;;
12665;SDS011;58531;59.050;17.416;2023-06-01T15:21:35;1.00;;;0.70;;